Ekalaka, Montana
Current Conditions -  °F | °C
As of 8:51 AM on Thursday 30 Oct 2014 (Local Time) from KBHK Reporting Station
Haze Haze  
Wind Chill: 27°   Ceiling: 500
Heat Index: 34°   Visibility: 6mi
Dew Point: 32°   Wind: 8mph
Humidity: 92%   Direction: 30°NNE
Pressure: 30.34"   Gusts: NA
Location:  45.89°N, 104.55°W
Report Text: KBHK 301451Z AUTO 03007KT 6SM BR OVC005 01/00 A3034 RMK AO2 SLP295 T00110000 51030
Loading
Personal Weather Stations






























Interactive Weather Map
Tropical Storm Tracking
New forecast layout! Learn more

10-Day Weather Forecast

Advertisements
Track Severe Weather on mobile